sensor_id;sensor_type;location;lat;lon;timestamp;pressure;altitude;pressure_sealevel;temperature;humidity
15604;BME280;7902;49.042;9.092;2023-03-21T00:00:46;99333.78;;;14.56;54.30
15604;BME280;7902;49.042;9.092;2023-03-21T00:03:13;99330.56;;;14.53;53.53
15604;BME280;7902;49.042;9.092;2023-03-21T00:05:41;99339.91;;;14.57;53.61
15604;BME280;7902;49.042;9.092;2023-03-21T00:08:08;99333.94;;;14.55;53.76
15604;BME280;7902;49.042;9.092;2023-03-21T00:10:33;99333.72;;;14.46;54.22
15604;BME280;7902;49.042;9.092;2023-03-21T00:12:59;99333.72;;;14.46;54.29
15604;BME280;7902;49.042;9.092;2023-03-21T00:15:25;99325.56;;;14.49;54.62
15604;BME280;7902;49.042;9.092;2023-03-21T00:17:56;99324.31;;;14.54;53.59
15604;BME280;7902;49.042;9.092;2023-03-21T00:20:30;99321.34;;;14.47;54.40
15604;BME280;7902;49.042;9.092;2023-03-21T00:22:59;99323.94;;;14.37;54.99
15604;BME280;7902;49.042;9.092;2023-03-21T00:25:26;99330.41;;;14.33;55.14
15604;BME280;7902;49.042;9.092;2023-03-21T00:27:53;99321.44;;;14.36;54.56
15604;BME280;7902;49.042;9.092;2023-03-21T00:30:19;99321.66;;;14.33;55.20
15604;BME280;7902;49.042;9.092;2023-03-21T00:32:45;99318.16;;;14.32;55.26
15604;BME280;7902;49.042;9.092;2023-03-21T00:35:11;99312.31;;;14.29;55.29
15604;BME280;7902;49.042;9.092;2023-03-21T00:37:37;99315.06;;;14.27;55.28
15604;BME280;7902;49.042;9.092;2023-03-21T00:40:04;99307.75;;;14.31;54.96
15604;BME280;7902;49.042;9.092;2023-03-21T00:42:37;99305.81;;;14.33;54.70
15604;BME280;7902;49.042;9.092;2023-03-21T00:45:04;99296.06;;;14.33;54.65
15604;BME280;7902;49.042;9.092;2023-03-21T00:47:31;99298.72;;;14.33;54.39
15604;BME280;7902;49.042;9.092;2023-03-21T00:49:57;99298.59;;;14.35;54.51
15604;BME280;7902;49.042;9.092;2023-03-21T00:52:23;99290.78;;;14.33;55.07
15604;BME280;7902;49.042;9.092;2023-03-21T00:54:48;99290.78;;;14.33;54.50
15604;BME280;7902;49.042;9.092;2023-03-21T00:57:14;99288.94;;;14.24;54.74
15604;BME280;7902;49.042;9.092;2023-03-21T00:59:40;99285.31;;;14.25;55.09
15604;BME280;7902;49.042;9.092;2023-03-21T01:02:06;99288.94;;;14.24;54.83
15604;BME280;7902;49.042;9.092;2023-03-21T01:04:33;99290.34;;;14.28;54.43
15604;BME280;7902;49.042;9.092;2023-03-21T01:06:59;99287.00;;;14.26;54.66
15604;BME280;7902;49.042;9.092;2023-03-21T01:09:25;99282.41;;;14.28;53.88
15604;BME280;7902;49.042;9.092;2023-03-21T01:11:51;99280.88;;;14.26;54.69
15604;BME280;7902;49.042;9.092;2023-03-21T01:14:19;99281.00;;;14.24;54.91
15604;BME280;7902;49.042;9.092;2023-03-21T01:16:46;99276.69;;;14.23;54.90
15604;BME280;7902;49.042;9.092;2023-03-21T01:19:15;99279.47;;;14.22;55.45
15604;BME280;7902;49.042;9.092;2023-03-21T01:21:42;99274.31;;;14.20;55.16
15604;BME280;7902;49.042;9.092;2023-03-21T01:24:08;99275.44;;;14.27;54.28
15604;BME280;7902;49.042;9.092;2023-03-21T01:26:34;99277.53;;;14.24;54.78
15604;BME280;7902;49.042;9.092;2023-03-21T01:29:03;99262.53;;;14.24;55.02
15604;BME280;7902;49.042;9.092;2023-03-21T01:31:29;99262.25;;;14.27;54.45
15604;BME280;7902;49.042;9.092;2023-03-21T01:33:55;99261.78;;;14.22;54.87
15604;BME280;7902;49.042;9.092;2023-03-21T01:36:25;99262.63;;;14.23;55.34
15604;BME280;7902;49.042;9.092;2023-03-21T01:38:51;99262.78;;;14.21;55.15
15604;BME280;7902;49.042;9.092;2023-03-21T01:43:52;99262.53;;;14.24;55.04
15604;BME280;7902;49.042;9.092;2023-03-21T01:49:24;99258.47;;;14.20;54.52
15604;BME280;7902;49.042;9.092;2023-03-21T01:51:58;99254.41;;;14.16;54.90
15604;BME280;7902;49.042;9.092;2023-03-21T01:54:28;99253.81;;;14.13;54.41
15604;BME280;7902;49.042;9.092;2023-03-21T01:56:58;99262.06;;;14.19;55.04
15604;BME280;7902;49.042;9.092;2023-03-21T01:59:35;99252.34;;;14.20;54.81
15604;BME280;7902;49.042;9.092;2023-03-21T02:02:04;99251.50;;;14.19;54.49
15604;BME280;7902;49.042;9.092;2023-03-21T02:04:36;99243.59;;;14.19;54.33
15604;BME280;7902;49.042;9.092;2023-03-21T02:07:10;99245.25;;;14.20;54.03
15604;BME280;7902;49.042;9.092;2023-03-21T02:09:38;99248.28;;;14.16;54.49
15604;BME280;7902;49.042;9.092;2023-03-21T02:12:07;99240.81;;;14.21;54.42
15604;BME280;7902;49.042;9.092;2023-03-21T02:14:35;99240.94;;;14.19;55.25
15604;BME280;7902;49.042;9.092;2023-03-21T02:17:12;99238.63;;;14.26;54.14
15604;BME280;7902;49.042;9.092;2023-03-21T02:22:45;99235.53;;;14.21;55.20
15604;BME280;7902;49.042;9.092;2023-03-21T02:28:21;99233.28;;;14.16;55.08
15604;BME280;7902;49.042;9.092;2023-03-21T02:31:22;99225.09;;;14.19;54.66
15604;BME280;7902;49.042;9.092;2023-03-21T02:47:04;99221.31;;;14.12;53.84
15604;BME280;7902;49.042;9.092;2023-03-21T02:49:39;99223.41;;;14.18;54.21
15604;BME280;7902;49.042;9.092;2023-03-21T02:52:11;99227.84;;;14.18;53.32
15604;BME280;7902;49.042;9.092;2023-03-21T02:54:40;99226.25;;;14.26;53.93
15604;BME280;7902;49.042;9.092;2023-03-21T02:57:08;99224.97;;;14.21;54.36
15604;BME280;7902;49.042;9.092;2023-03-21T02:59:35;99223.81;;;14.14;54.01
15604;BME280;7902;49.042;9.092;2023-03-21T03:02:03;99223.13;;;14.12;54.02
15604;BME280;7902;49.042;9.092;2023-03-21T03:04:29;99221.09;;;14.04;54.26
15604;BME280;7902;49.042;9.092;2023-03-21T03:07:25;99217.63;;;14.03;54.48
15604;BME280;7902;49.042;9.092;2023-03-21T03:10:05;99215.97;;;14.02;54.40
15604;BME280;7902;49.042;9.092;2023-03-21T03:12:48;99224.75;;;14.03;54.80
15604;BME280;7902;49.042;9.092;2023-03-21T03:26:32;99215.72;;;14.05;54.51
15604;BME280;7902;49.042;9.092;2023-03-21T03:29:06;99205.41;;;14.02;54.71
15604;BME280;7902;49.042;9.092;2023-03-21T03:31:37;99205.34;;;13.93;54.80
15604;BME280;7902;49.042;9.092;2023-03-21T03:34:08;99202.28;;;13.88;55.36
15604;BME280;7902;49.042;9.092;2023-03-21T03:36:42;99203.88;;;13.79;55.28
15604;BME280;7902;49.042;9.092;2023-03-21T03:39:13;99202.50;;;13.85;54.85
15604;BME280;7902;49.042;9.092;2023-03-21T03:41:44;99201.56;;;13.86;55.35
15604;BME280;7902;49.042;9.092;2023-03-21T03:44:10;99202.97;;;13.90;54.96
15604;BME280;7902;49.042;9.092;2023-03-21T03:46:46;99199.47;;;13.89;54.91
15604;BME280;7902;49.042;9.092;2023-03-21T03:49:16;99207.53;;;13.88;55.38
15604;BME280;7902;49.042;9.092;2023-03-21T03:52:19;99213.97;;;13.95;54.87
15604;BME280;7902;49.042;9.092;2023-03-21T03:54:48;99200.09;;;13.93;54.72
15604;BME280;7902;49.042;9.092;2023-03-21T03:57:15;99199.34;;;13.91;55.18
15604;BME280;7902;49.042;9.092;2023-03-21T03:59:43;99205.34;;;13.93;55.45
15604;BME280;7902;49.042;9.092;2023-03-21T04:02:10;99204.19;;;13.86;54.98
15604;BME280;7902;49.042;9.092;2023-03-21T04:04:36;99198.06;;;13.85;55.44
15604;BME280;7902;49.042;9.092;2023-03-21T04:07:03;99198.34;;;13.82;55.18
15604;BME280;7902;49.042;9.092;2023-03-21T04:09:31;99195.81;;;13.81;55.53
15604;BME280;7902;49.042;9.092;2023-03-21T04:11:57;99198.91;;;13.86;55.33
15604;BME280;7902;49.042;9.092;2023-03-21T04:14:24;99201.56;;;13.86;55.67
15604;BME280;7902;49.042;9.092;2023-03-21T04:16:50;99198.41;;;13.92;55.23
15604;BME280;7902;49.042;9.092;2023-03-21T04:19:17;99194.81;;;13.93;55.54
15604;BME280;7902;49.042;9.092;2023-03-21T04:21:45;99196.84;;;13.89;55.96
15604;BME280;7902;49.042;9.092;2023-03-21T04:24:11;99191.72;;;13.88;56.10
15604;BME280;7902;49.042;9.092;2023-03-21T04:26:39;99193.41;;;13.89;55.58
15604;BME280;7902;49.042;9.092;2023-03-21T04:29:05;99192.78;;;13.85;55.94
15604;BME280;7902;49.042;9.092;2023-03-21T04:31:32;99193.06;;;13.82;55.86
15604;BME280;7902;49.042;9.092;2023-03-21T04:34:01;99195.03;;;13.90;56.27
15604;BME280;7902;49.042;9.092;2023-03-21T04:36:28;99190.38;;;13.93;55.20
15604;BME280;7902;49.042;9.092;2023-03-21T04:39:04;99189.75;;;13.90;56.11
15604;BME280;7902;49.042;9.092;2023-03-21T04:41:41;99199.34;;;13.91;55.66
15604;BME280;7902;49.042;9.092;2023-03-21T04:44:08;99193.25;;;13.90;55.86
15604;BME280;7902;49.042;9.092;2023-03-21T04:46:34;99191.72;;;13.88;56.41
15604;BME280;7902;49.042;9.092;2023-03-21T04:49:01;99190.41;;;13.82;56.12
15604;BME280;7902;49.042;9.092;2023-03-21T04:51:27;99181.94;;;13.79;56.69
15604;BME280;7902;49.042;9.092;2023-03-21T04:53:54;99186.09;;;13.81;56.31
15604;BME280;7902;49.042;9.092;2023-03-21T04:56:26;99183.28;;;13.73;56.55
15604;BME280;7902;49.042;9.092;2023-03-21T04:59:08;99182.78;;;13.79;56.44
15604;BME280;7902;49.042;9.092;2023-03-21T05:01:35;99182.16;;;13.76;56.82
15604;BME280;7902;49.042;9.092;2023-03-21T05:04:01;99174.00;;;13.79;56.81
15604;BME280;7902;49.042;9.092;2023-03-21T05:06:28;99172.06;;;13.81;56.38
15604;BME280;7902;49.042;9.092;2023-03-21T05:08:56;99169.97;;;13.75;56.94
15604;BME280;7902;49.042;9.092;2023-03-21T05:11:27;99176.66;;;13.79;56.52
15604;BME280;7902;49.042;9.092;2023-03-21T05:13:55;99184.81;;;13.76;56.92
15604;BME280;7902;49.042;9.092;2023-03-21T05:16:21;99183.84;;;13.77;57.04
15604;BME280;7902;49.042;9.092;2023-03-21T05:18:52;99187.22;;;13.79;56.63
15604;BME280;7902;49.042;9.092;2023-03-21T05:21:20;99179.28;;;13.79;56.58
15604;BME280;7902;49.042;9.092;2023-03-21T05:23:46;99177.72;;;13.76;56.42
15604;BME280;7902;49.042;9.092;2023-03-21T05:26:22;99183.84;;;13.77;57.13
15604;BME280;7902;49.042;9.092;2023-03-21T05:28:48;99180.13;;;13.79;56.55
15604;BME280;7902;49.042;9.092;2023-03-21T05:31:14;99169.69;;;13.78;56.27
15604;BME280;7902;49.042;9.092;2023-03-21T05:33:45;99173.47;;;13.85;56.22
15604;BME280;7902;49.042;9.092;2023-03-21T05:36:11;99176.91;;;13.76;56.28
15604;BME280;7902;49.042;9.092;2023-03-21T05:38:38;99181.94;;;13.79;56.63
15604;BME280;7902;49.042;9.092;2023-03-21T05:41:07;99178.56;;;13.77;56.64
15604;BME280;7902;49.042;9.092;2023-03-21T05:43:33;99182.94;;;13.87;56.33
15604;BME280;7902;49.042;9.092;2023-03-21T05:45:59;99176.38;;;13.82;56.83
15604;BME280;7902;49.042;9.092;2023-03-21T05:48:25;99180.44;;;13.86;56.84
15604;BME280;7902;49.042;9.092;2023-03-21T05:50:52;99188.84;;;13.80;57.28
15604;BME280;7902;49.042;9.092;2023-03-21T05:53:18;99192.03;;;13.74;56.89
15604;BME280;7902;49.042;9.092;2023-03-21T05:55:44;99193.31;;;13.79;56.40
15604;BME280;7902;49.042;9.092;2023-03-21T05:58:10;99191.78;;;13.77;57.17
15604;BME280;7902;49.042;9.092;2023-03-21T06:00:36;99199.69;;;13.77;57.26
15604;BME280;7902;49.042;9.092;2023-03-21T06:03:02;99196.09;;;13.78;57.21
15604;BME280;7902;49.042;9.092;2023-03-21T06:05:28;99194.47;;;13.86;56.63
15604;BME280;7902;49.042;9.092;2023-03-21T06:07:55;99194.97;;;13.80;56.76
15604;BME280;7902;49.042;9.092;2023-03-21T06:10:21;99189.69;;;13.80;56.86
15604;BME280;7902;49.042;9.092;2023-03-21T06:12:46;99191.66;;;13.78;57.85
15604;BME280;7902;49.042;9.092;2023-03-21T06:15:12;99196.44;;;13.94;56.28
15604;BME280;7902;49.042;9.092;2023-03-21T06:17:38;99191.38;;;14.02;56.10
15604;BME280;7902;49.042;9.092;2023-03-21T06:20:05;99192.63;;;13.98;56.83
15604;BME280;7902;49.042;9.092;2023-03-21T06:22:33;99193.81;;;13.94;57.17
15604;BME280;7902;49.042;9.092;2023-03-21T06:24:59;99191.72;;;13.88;57.00
15604;BME280;7902;49.042;9.092;2023-03-21T06:27:25;99197.84;;;13.88;57.44
15604;BME280;7902;49.042;9.092;2023-03-21T06:29:51;99197.78;;;13.79;57.18
15604;BME280;7902;49.042;9.092;2023-03-21T06:32:17;99197.50;;;13.82;57.02
15604;BME280;7902;49.042;9.092;2023-03-21T06:34:43;99191.78;;;13.77;58.04
15604;BME280;7902;49.042;9.092;2023-03-21T06:37:09;99185.66;;;13.76;57.66
15604;BME280;7902;49.042;9.092;2023-03-21T06:39:35;99193.00;;;13.73;58.09
15604;BME280;7902;49.042;9.092;2023-03-21T06:42:01;99195.38;;;13.76;57.20
15604;BME280;7902;49.042;9.092;2023-03-21T06:44:27;99194.13;;;13.80;57.15
15604;BME280;7902;49.042;9.092;2023-03-21T06:46:53;99195.59;;;13.84;57.76
15604;BME280;7902;49.042;9.092;2023-03-21T06:49:19;99190.69;;;13.79;57.82
15604;BME280;7902;49.042;9.092;2023-03-21T06:51:45;99192.94;;;13.84;57.09
15604;BME280;7902;49.042;9.092;2023-03-21T06:54:11;99185.31;;;13.90;57.17
15604;BME280;7902;49.042;9.092;2023-03-21T06:56:39;99189.75;;;13.90;57.10
15604;BME280;7902;49.042;9.092;2023-03-21T06:59:06;99191.31;;;13.92;57.02
15604;BME280;7902;49.042;9.092;2023-03-21T07:01:34;99186.34;;;13.99;56.84
15604;BME280;7902;49.042;9.092;2023-03-21T07:04:00;99184.47;;;14.11;56.66
15604;BME280;7902;49.042;9.092;2023-03-21T07:06:27;99190.88;;;14.18;56.82
15604;BME280;7902;49.042;9.092;2023-03-21T07:08:54;99188.28;;;14.27;56.43
15604;BME280;7902;49.042;9.092;2023-03-21T07:11:21;99193.56;;;14.27;55.75
15604;BME280;7902;49.042;9.092;2023-03-21T07:13:47;99189.00;;;14.29;55.65
15604;BME280;7902;49.042;9.092;2023-03-21T07:16:14;99191.13;;;14.35;56.68
15604;BME280;7902;49.042;9.092;2023-03-21T07:18:41;99193.91;;;14.34;55.72
15604;BME280;7902;49.042;9.092;2023-03-21T07:21:07;99194.00;;;14.32;55.88
15604;BME280;7902;49.042;9.092;2023-03-21T07:23:33;99194.97;;;14.31;56.07
15604;BME280;7902;49.042;9.092;2023-03-21T07:25:59;99199.19;;;14.34;56.34
15604;BME280;7902;49.042;9.092;2023-03-21T07:28:26;99196.41;;;14.35;55.68
15604;BME280;7902;49.042;9.092;2023-03-21T07:30:55;99193.06;;;14.33;56.04
15604;BME280;7902;49.042;9.092;2023-03-21T07:33:22;99192.09;;;14.34;56.54
15604;BME280;7902;49.042;9.092;2023-03-21T07:35:49;99193.41;;;14.40;56.09
15604;BME280;7902;49.042;9.092;2023-03-21T07:38:15;99191.38;;;14.32;57.02
15604;BME280;7902;49.042;9.092;2023-03-21T07:40:43;99198.53;;;14.41;56.17
15604;BME280;7902;49.042;9.092;2023-03-21T07:43:09;99195.06;;;14.41;56.39
15604;BME280;7902;49.042;9.092;2023-03-21T07:45:35;99197.84;;;14.39;56.76
15604;BME280;7902;49.042;9.092;2023-03-21T07:48:01;99190.59;;;14.41;56.37
15604;BME280;7902;49.042;9.092;2023-03-21T07:50:27;99194.28;;;14.50;56.31
15604;BME280;7902;49.042;9.092;2023-03-21T07:52:53;99194.66;;;14.45;56.41
15604;BME280;7902;49.042;9.092;2023-03-21T07:55:19;99186.72;;;14.45;56.30
15604;BME280;7902;49.042;9.092;2023-03-21T07:57:48;99193.28;;;14.51;55.98
15604;BME280;7902;49.042;9.092;2023-03-21T08:00:14;99199.16;;;14.55;56.45
15604;BME280;7902;49.042;9.092;2023-03-21T08:02:52;99193.44;;;14.49;56.58
15604;BME280;7902;49.042;9.092;2023-03-21T08:05:23;99193.97;;;14.43;56.22
15604;BME280;7902;49.042;9.092;2023-03-21T08:07:50;99189.81;;;14.50;56.11
15604;BME280;7902;49.042;9.092;2023-03-21T08:10:17;99200.97;;;14.54;55.71
15604;BME280;7902;49.042;9.092;2023-03-21T08:12:45;99200.69;;;14.57;55.73
15604;BME280;7902;49.042;9.092;2023-03-21T08:15:12;99190.97;;;14.58;55.45
15604;BME280;7902;49.042;9.092;2023-03-21T08:17:39;99191.91;;;14.57;55.42
15604;BME280;7902;49.042;9.092;2023-03-21T08:20:07;99191.94;;;14.66;54.97
15604;BME280;7902;49.042;9.092;2023-03-21T08:22:34;99189.00;;;14.60;55.15
15604;BME280;7902;49.042;9.092;2023-03-21T08:25:04;99184.03;;;14.66;55.70
15604;BME280;7902;49.042;9.092;2023-03-21T08:27:31;99178.69;;;14.47;54.33
15604;BME280;7902;49.042;9.092;2023-03-21T08:29:58;99184.00;;;14.57;53.76
15604;BME280;7902;49.042;9.092;2023-03-21T08:32:24;99180.97;;;14.71;54.62
15604;BME280;7902;49.042;9.092;2023-03-21T08:34:54;99182.59;;;14.53;53.86
15604;BME280;7902;49.042;9.092;2023-03-21T08:37:22;99173.41;;;14.47;53.97
15604;BME280;7902;49.042;9.092;2023-03-21T08:39:48;99183.44;;;14.53;53.47
15604;BME280;7902;49.042;9.092;2023-03-21T08:42:14;99182.75;;;14.61;53.16
15604;BME280;7902;49.042;9.092;2023-03-21T08:44:41;99171.22;;;14.62;54.03
15604;BME280;7902;49.042;9.092;2023-03-21T08:47:07;99168.84;;;14.59;52.52
15604;BME280;7902;49.042;9.092;2023-03-21T08:49:36;99172.19;;;14.61;53.68
15604;BME280;7902;49.042;9.092;2023-03-21T08:52:02;99167.09;;;14.78;54.54
15604;BME280;7902;49.042;9.092;2023-03-21T08:54:28;99168.59;;;14.71;54.60
15604;BME280;7902;49.042;9.092;2023-03-21T08:56:54;99167.91;;;14.79;54.02
15604;BME280;7902;49.042;9.092;2023-03-21T08:59:20;99171.38;;;14.70;54.13
15604;BME280;7902;49.042;9.092;2023-03-21T09:01:46;99161.38;;;14.73;53.67
15604;BME280;7902;49.042;9.092;2023-03-21T09:04:12;99154.81;;;14.68;52.84
15604;BME280;7902;49.042;9.092;2023-03-21T09:06:39;99156.53;;;14.78;52.92
15604;BME280;7902;49.042;9.092;2023-03-21T09:09:14;99162.63;;;14.79;53.92
15604;BME280;7902;49.042;9.092;2023-03-21T09:11:40;99167.38;;;14.85;53.63
15604;BME280;7902;49.042;9.092;2023-03-21T09:14:07;99161.81;;;14.78;54.24
15604;BME280;7902;49.042;9.092;2023-03-21T09:16:33;99162.63;;;14.88;54.18
15604;BME280;7902;49.042;9.092;2023-03-21T09:18:59;99159.59;;;14.93;53.41
15604;BME280;7902;49.042;9.092;2023-03-21T09:21:26;99166.00;;;14.90;53.82
15604;BME280;7902;49.042;9.092;2023-03-21T09:23:53;99160.19;;;14.97;52.77
15604;BME280;7902;49.042;9.092;2023-03-21T09:26:22;99162.66;;;14.98;53.67
15604;BME280;7902;49.042;9.092;2023-03-21T09:28:48;99162.22;;;14.93;54.33
15604;BME280;7902;49.042;9.092;2023-03-21T09:31:15;99164.88;;;14.93;53.79
15604;BME280;7902;49.042;9.092;2023-03-21T09:33:48;99163.66;;;14.97;53.70
15604;BME280;7902;49.042;9.092;2023-03-21T09:36:14;99167.94;;;14.98;54.49
15604;BME280;7902;49.042;9.092;2023-03-21T09:38:42;99166.56;;;14.94;54.07
15604;BME280;7902;49.042;9.092;2023-03-21T09:46:53;99162.41;;;15.01;54.97
15604;BME280;7902;49.042;9.092;2023-03-21T09:49:28;99161.69;;;15.09;54.75
15604;BME280;7902;49.042;9.092;2023-03-21T09:51:58;99156.28;;;15.01;54.62
15604;BME280;7902;49.042;9.092;2023-03-21T09:54:26;99159.06;;;15.18;53.10
15604;BME280;7902;49.042;9.092;2023-03-21T09:56:55;99163.22;;;15.30;53.80
15604;BME280;7902;49.042;9.092;2023-03-21T09:59:28;99152.81;;;15.38;52.30
15604;BME280;7902;49.042;9.092;2023-03-21T10:01:58;99157.94;;;15.30;54.07
15604;BME280;7902;49.042;9.092;2023-03-21T10:04:25;99149.88;;;15.32;53.56
15604;BME280;7902;49.042;9.092;2023-03-21T10:07:01;99150.28;;;15.37;53.49
15604;BME280;7902;49.042;9.092;2023-03-21T10:09:29;99147.34;;;15.30;53.62
15604;BME280;7902;49.042;9.092;2023-03-21T10:12:11;99146.16;;;15.54;53.04
15604;BME280;7902;49.042;9.092;2023-03-21T10:14:42;99139.84;;;15.35;54.31
15604;BME280;7902;49.042;9.092;2023-03-21T10:17:28;99140.84;;;15.44;52.88
15604;BME280;7902;49.042;9.092;2023-03-21T10:20:17;99133.44;;;15.48;52.01
15604;BME280;7902;49.042;9.092;2023-03-21T10:22:45;99140.97;;;15.62;52.48
15604;BME280;7902;49.042;9.092;2023-03-21T10:25:15;99134.56;;;15.55;53.55
15604;BME280;7902;49.042;9.092;2023-03-21T10:27:42;99134.84;;;15.52;53.71
15604;BME280;7902;49.042;9.092;2023-03-21T10:30:17;99128.44;;;15.54;53.35
15604;BME280;7902;49.042;9.092;2023-03-21T10:32:44;99126.47;;;15.47;54.62
15604;BME280;7902;49.042;9.092;2023-03-21T10:35:12;99117.81;;;15.45;53.64
15604;BME280;7902;49.042;9.092;2023-03-21T10:37:38;99117.31;;;15.51;53.90
15604;BME280;7902;49.042;9.092;2023-03-21T10:40:06;99114.50;;;15.62;52.24
15604;BME280;7902;49.042;9.092;2023-03-21T10:42:34;99114.63;;;15.60;52.80
15604;BME280;7902;49.042;9.092;2023-03-21T10:45:01;99113.63;;;15.80;52.97
15604;BME280;7902;49.042;9.092;2023-03-21T10:47:32;99109.72;;;15.75;52.09
15604;BME280;7902;49.042;9.092;2023-03-21T10:50:04;99116.56;;;15.68;52.93
15604;BME280;7902;49.042;9.092;2023-03-21T10:52:31;99114.69;;;15.88;50.51
15604;BME280;7902;49.042;9.092;2023-03-21T10:55:25;99117.50;;;15.86;51.84
15604;BME280;7902;49.042;9.092;2023-03-21T10:58:03;99111.91;;;15.89;51.86
15604;BME280;7902;49.042;9.092;2023-03-21T11:00:36;99114.41;;;16.00;51.41
15604;BME280;7902;49.042;9.092;2023-03-21T11:03:04;99111.50;;;15.84;52.23
15604;BME280;7902;49.042;9.092;2023-03-21T11:05:36;99116.09;;;15.82;53.42
15604;BME280;7902;49.042;9.092;2023-03-21T11:08:05;99111.09;;;15.79;53.31
15604;BME280;7902;49.042;9.092;2023-03-21T11:10:37;99111.66;;;15.82;52.35
15604;BME280;7902;49.042;9.092;2023-03-21T11:13:18;99109.44;;;15.68;53.13
15604;BME280;7902;49.042;9.092;2023-03-21T11:16:03;99109.72;;;15.75;53.58
15604;BME280;7902;49.042;9.092;2023-03-21T11:18:31;99097.22;;;15.67;53.91
15604;BME280;7902;49.042;9.092;2023-03-21T11:21:06;99094.41;;;15.69;54.11
15604;BME280;7902;49.042;9.092;2023-03-21T11:23:35;99097.22;;;15.67;53.87
15604;BME280;7902;49.042;9.092;2023-03-21T11:26:08;99103.06;;;15.71;53.14
15604;BME280;7902;49.042;9.092;2023-03-21T11:28:37;99094.41;;;15.69;54.25
15604;BME280;7902;49.042;9.092;2023-03-21T11:31:05;99092.16;;;15.74;53.22
15604;BME280;7902;49.042;9.092;2023-03-21T11:33:40;99099.09;;;15.85;52.35
15604;BME280;7902;49.042;9.092;2023-03-21T11:36:33;99098.84;;;15.78;53.78
15604;BME280;7902;49.042;9.092;2023-03-21T11:39:14;99094.53;;;15.87;53.03
15604;BME280;7902;49.042;9.092;2023-03-21T11:41:41;99095.09;;;15.80;53.46
15604;BME280;7902;49.042;9.092;2023-03-21T11:44:30;99083.97;;;15.77;54.10
15604;BME280;7902;49.042;9.092;2023-03-21T11:46:57;99076.81;;;15.77;52.94
15604;BME280;7902;49.042;9.092;2023-03-21T11:49:24;99080.16;;;15.79;54.04
15604;BME280;7902;49.042;9.092;2023-03-21T11:52:10;99075.19;;;15.76;53.91
15604;BME280;7902;49.042;9.092;2023-03-21T11:57:44;99063.16;;;15.82;53.32
15604;BME280;7902;49.042;9.092;2023-03-21T12:00:23;99063.59;;;15.77;53.39
15604;BME280;7902;49.042;9.092;2023-03-21T12:03:10;99059.97;;;15.78;53.17
15604;BME280;7902;49.042;9.092;2023-03-21T12:05:50;99054.63;;;15.88;53.01
15604;BME280;7902;49.042;9.092;2023-03-21T12:11:32;99046.41;;;15.91;52.98
15604;BME280;7902;49.042;9.092;2023-03-21T12:24:27;99037.47;;;15.92;53.11
15604;BME280;7902;49.042;9.092;2023-03-21T12:34:47;99030.63;;;15.99;52.92
15604;BME280;7902;49.042;9.092;2023-03-21T12:37:40;99023.13;;;15.95;53.94
15604;BME280;7902;49.042;9.092;2023-03-21T12:40:16;99017.06;;;16.02;53.04
15604;BME280;7902;49.042;9.092;2023-03-21T12:45:59;99020.13;;;16.07;53.02
15604;BME280;7902;49.042;9.092;2023-03-21T12:48:40;99020.94;;;16.08;53.56
15604;BME280;7902;49.042;9.092;2023-03-21T12:51:14;99016.94;;;16.04;53.17
15604;BME280;7902;49.042;9.092;2023-03-21T12:53:51;99009.81;;;16.04;53.05
15604;BME280;7902;49.042;9.092;2023-03-21T12:56:28;99012.91;;;16.00;53.49
15604;BME280;7902;49.042;9.092;2023-03-21T13:01:44;99012.63;;;16.03;53.71
15604;BME280;7902;49.042;9.092;2023-03-21T13:04:27;99009.13;;;16.02;54.14
15604;BME280;7902;49.042;9.092;2023-03-21T13:06:59;99005.31;;;16.14;53.41
15604;BME280;7902;49.042;9.092;2023-03-21T13:09:35;99003.34;;;16.16;52.68
15604;BME280;7902;49.042;9.092;2023-03-21T13:15:05;98995.78;;;16.21;52.79
15604;BME280;7902;49.042;9.092;2023-03-21T13:17:41;98994.88;;;16.31;53.17
15604;BME280;7902;49.042;9.092;2023-03-21T13:20:43;99000.09;;;16.22;53.81
15604;BME280;7902;49.042;9.092;2023-03-21T13:23:10;98993.56;;;16.17;53.47
15604;BME280;7902;49.042;9.092;2023-03-21T13:25:45;98991.38;;;16.12;53.68
15604;BME280;7902;49.042;9.092;2023-03-21T13:28:19;98996.66;;;16.12;54.17
15604;BME280;7902;49.042;9.092;2023-03-21T13:30:47;98996.91;;;16.19;52.99
15604;BME280;7902;49.042;9.092;2023-03-21T13:33:22;98994.41;;;16.17;53.29
15604;BME280;7902;49.042;9.092;2023-03-21T13:35:59;98985.56;;;16.27;53.40
15604;BME280;7902;49.042;9.092;2023-03-21T13:38:34;98983.56;;;16.11;53.08
15604;BME280;7902;49.042;9.092;2023-03-21T13:41:07;98979.28;;;16.28;52.41
15604;BME280;7902;49.042;9.092;2023-03-21T14:02:01;98957.25;;;16.27;53.37
15604;BME280;7902;49.042;9.092;2023-03-21T14:04:30;98953.78;;;16.27;53.11
15604;BME280;7902;49.042;9.092;2023-03-21T14:07:22;98953.56;;;16.38;52.91
15604;BME280;7902;49.042;9.092;2023-03-21T14:09:52;98952.47;;;16.31;53.83
15604;BME280;7902;49.042;9.092;2023-03-21T14:12:23;98945.13;;;16.24;52.97
15604;BME280;7902;49.042;9.092;2023-03-21T14:14:52;98943.31;;;16.25;53.29
15604;BME280;7902;49.042;9.092;2023-03-21T14:17:24;98933.41;;;16.27;53.70
15604;BME280;7902;49.042;9.092;2023-03-21T14:19:57;98936.38;;;16.42;52.06
15604;BME280;7902;49.042;9.092;2023-03-21T14:22:23;98940.59;;;16.35;53.58
15604;BME280;7902;49.042;9.092;2023-03-21T14:24:58;98939.06;;;16.50;52.59
15604;BME280;7902;49.042;9.092;2023-03-21T14:27:27;98943.72;;;16.48;52.13
15604;BME280;7902;49.042;9.092;2023-03-21T14:29:55;98946.72;;;16.53;52.93
15604;BME280;7902;49.042;9.092;2023-03-21T14:32:24;98945.34;;;16.49;53.41
15604;BME280;7902;49.042;9.092;2023-03-21T14:34:53;98942.72;;;16.49;52.88
15604;BME280;7902;49.042;9.092;2023-03-21T14:37:45;98939.84;;;16.42;52.81
15604;BME280;7902;49.042;9.092;2023-03-21T14:40:22;98939.06;;;16.50;52.63
15604;BME280;7902;49.042;9.092;2023-03-21T14:42:50;98932.59;;;16.62;51.98
15604;BME280;7902;49.042;9.092;2023-03-21T14:45:20;98931.91;;;16.60;52.48
15604;BME280;7902;49.042;9.092;2023-03-21T14:48:10;98935.97;;;16.54;52.90
15604;BME280;7902;49.042;9.092;2023-03-21T14:53:19;98942.84;;;16.83;51.46
15604;BME280;7902;49.042;9.092;2023-03-21T14:55:50;98936.06;;;16.80;51.50
15604;BME280;7902;49.042;9.092;2023-03-21T14:58:19;98938.34;;;16.75;50.42
15604;BME280;7902;49.042;9.092;2023-03-21T15:00:51;98932.16;;;16.66;50.83